TimeMDT,TemperatureF,Dew PointF,Humidity,Sea Level PressureIn,VisibilityMPH,Wind Direction,Wind SpeedMPH,Gust SpeedMPH,PrecipitationIn,Events,Conditions,WindDirDegrees,DateUTC
12:53 AM,57.0,37.0,47,29.64,10.0,Calm,Calm,-,N/A,,Clear,0,2013-10-01 06:53:00
1:53 AM,59.0,35.1,41,29.64,10.0,North,3.5,-,N/A,,Clear,360,2013-10-01 07:53:00
2:53 AM,57.0,36.0,45,29.66,10.0,WNW,3.5,-,N/A,,Clear,300,2013-10-01 08:53:00
3:53 AM,48.9,39.0,69,29.69,10.0,NW,4.6,-,N/A,,Clear,310,2013-10-01 09:53:00
4:53 AM,48.0,39.9,74,29.71,10.0,NW,6.9,-,N/A,,Clear,310,2013-10-01 10:53:00
5:53 AM,48.9,42.1,77,29.75,10.0,WSW,4.6,-,N/A,,Clear,240,2013-10-01 11:53:00
6:53 AM,50.0,42.1,74,29.81,10.0,SSW,6.9,-,N/A,,Clear,200,2013-10-01 12:53:00
7:53 AM,59.0,43.0,55,29.85,10.0,ENE,6.9,-,N/A,,Clear,70,2013-10-01 13:53:00
8:53 AM,62.1,46.0,56,29.87,10.0,NNE,13.8,-,N/A,,Clear,20,2013-10-01 14:53:00
9:53 AM,64.9,45.0,48,29.88,10.0,NNE,15.0,-,N/A,,Clear,30,2013-10-01 15:53:00
10:53 AM,71.1,44.1,38,29.86,10.0,NNE,12.7,-,N/A,,Clear,20,2013-10-01 16:53:00
11:53 AM,75.0,45.0,34,29.86,10.0,NE,9.2,-,N/A,,Clear,50,2013-10-01 17:53:00
12:53 PM,78.1,44.1,30,29.85,10.0,East,13.8,-,N/A,,Clear,90,2013-10-01 18:53:00
1:53 PM,79.0,44.1,29,29.83,10.0,East,12.7,18.4,N/A,,Clear,90,2013-10-01 19:53:00
2:53 PM,80.1,46.0,30,29.82,10.0,ENE,13.8,-,N/A,,Clear,60,2013-10-01 20:53:00
3:53 PM,80.1,45.0,29,29.82,10.0,East,10.4,18.4,N/A,,Clear,90,2013-10-01 21:53:00
4:53 PM,80.1,46.0,30,29.81,10.0,ESE,10.4,-,N/A,,Clear,110,2013-10-01 22:53:00
5:53 PM,77.0,45.0,32,29.82,10.0,ESE,9.2,-,N/A,,Clear,120,2013-10-01 23:53:00
6:53 PM,69.1,46.0,44,29.83,10.0,ESE,6.9,-,N/A,,Clear,120,2013-10-02 00:53:00
7:53 PM,64.9,46.9,52,29.84,10.0,SE,6.9,-,N/A,,Clear,140,2013-10-02 01:53:00
8:53 PM,63.0,46.9,56,29.83,10.0,SSE,10.4,-,N/A,,Clear,150,2013-10-02 02:53:00
9:53 PM,57.9,46.0,65,29.85,10.0,Calm,Calm,-,N/A,,Clear,0,2013-10-02 03:53:00
10:53 PM,57.9,46.9,67,29.83,10.0,Calm,Calm,-,N/A,,Clear,0,2013-10-02 04:53:00
11:53 PM,54.0,46.9,77,29.82,10.0,Calm,Calm,-,N/A,,Clear,0,2013-10-02 05:53:00